Time;durP1;ratioP1;P1;durP2;ratioP2;P2;SDS_P1;SDS_P2;PMS_P1;PMS_P2;Temp;Humidity;BMP_temperature;BMP_pressure;BME280_temperature;BME280_humidity;BME280_pressure;Samples;Min_cycle;Max_cycle;Signal;HPM_P1;HPM_P2
2022/10/18 00:00:47;;;;;;;;;;;;;;;13.21;100.00;101274.00;3057353;19;19982;-53
2022/10/18 00:01:49;;;;;;;;;;;;;;;13.18;100.00;101271.50;3057607;19;20544;-52
2022/10/18 00:02:54;;;;;;;;;;;;;;;13.16;100.00;101269.91;3057176;19;19923;-53
2022/10/18 00:03:56;;;;;;;;;;;;;;;13.14;100.00;101270.00;3057987;19;19919;-52
2022/10/18 00:05:00;;;;;;;;;;;;;;;13.12;100.00;101271.84;3057470;19;19931;-52
2022/10/18 00:06:03;;;;;;;;;;;;;;;13.09;100.00;101264.00;3057689;19;19923;-52
2022/10/18 00:07:07;;;;;;;;;;;;;;;13.08;100.00;101267.63;3057119;19;19918;-52
2022/10/18 00:08:09;;;;;;;;;;;;;;;13.05;100.00;101262.44;3057525;19;20604;-53
2022/10/18 00:09:14;;;;;;;;;;;;;;;13.02;100.00;101268.00;3057269;19;19964;-52
2022/10/18 00:10:16;;;;;;;;;;;;;;;13.00;100.00;101269.91;3057318;19;19990;-53
2022/10/18 00:11:20;;;;;;;;;;;;;;;12.97;100.00;101265.59;3057196;19;19933;-52
2022/10/18 00:12:22;;;;;;;;;;;;;;;12.94;100.00;101267.56;3057524;19;19922;-53
2022/10/18 00:13:27;;;;;;;;;;;;;;;12.91;100.00;101265.09;3057016;19;20051;-53
2022/10/18 00:14:29;;;;;;;;;;;;;;;12.88;100.00;101259.91;3057325;19;20342;-52
2022/10/18 00:15:34;;;;;;;;;;;;;;;12.85;100.00;101255.59;3057202;19;19928;-53
2022/10/18 00:16:36;;;;;;;;;;;;;;;12.83;100.00;101256.63;3057762;19;19919;-52
2022/10/18 00:17:40;;;;;;;;;;;;;;;12.81;100.00;101253.16;3057091;19;19923;-52
2022/10/18 00:18:42;;;;;;;;;;;;;;;12.78;100.00;101258.72;3057539;19;20353;-52
2022/10/18 00:19:49;;;;;;;;;;;;;;;12.74;100.00;101251.81;3056937;19;20301;-53
2022/10/18 00:21:01;;;;;;;;;;;;;;;12.71;100.00;101251.97;3057038;19;19918;-52
2022/10/18 00:22:05;;;;;;;;;;;;;;;12.66;100.00;101252.28;3056530;19;19923;-53
2022/10/18 00:23:07;;;;;;;;;;;;;;;12.63;100.00;101249.75;3056385;19;19962;-52
2022/10/18 00:24:12;;;;;;;;;;;;;;;12.60;100.00;101244.56;3057183;19;19923;-53
2022/10/18 00:25:14;;;;;;;;;;;;;;;12.59;100.00;101248.19;3057240;19;20012;-52
2022/10/18 00:26:20;;;;;;;;;;;;;;;12.57;100.00;101245.63;3057226;19;19930;-52
2022/10/18 00:27:22;;;;;;;;;;;;;;;12.56;100.00;101241.22;3057065;19;19915;-52
2022/10/18 00:28:26;;;;;;;;;;;;;;;12.54;100.00;101240.47;3056176;19;20310;-52
2022/10/18 00:29:28;;;;;;;;;;;;;;;12.53;100.00;101243.22;3056269;19;19926;-54
2022/10/18 00:30:32;;;;;;;;;;;;;;;12.51;100.00;101245.97;3057007;19;20326;-52
2022/10/18 00:31:35;;;;;;;;;;;;;;;12.50;100.00;101233.53;3057149;19;19923;-53
2022/10/18 00:32:41;;;;;;;;;;;;;;;12.47;100.00;101232.84;3056943;19;19918;-53
2022/10/18 00:33:43;;;;;;;;;;;;;;;12.45;100.00;101230.25;3056921;19;19994;-53
2022/10/18 00:34:48;;;;;;;;;;;;;;;12.46;100.00;101228.44;3057021;19;19978;-51
2022/10/18 00:35:49;;;;;;;;;;;;;;;12.44;100.00;101225.84;3056765;19;20290;-52
2022/10/18 00:36:54;;;;;;;;;;;;;;;12.43;100.00;101221.47;3056235;19;20107;-52
2022/10/18 00:37:56;;;;;;;;;;;;;;;12.45;100.00;101222.22;3057005;19;20015;-52
2022/10/18 00:39:00;;;;;;;;;;;;;;;12.43;100.00;101221.47;3056953;19;19990;-52
2022/10/18 00:40:02;;;;;;;;;;;;;;;12.45;100.00;101219.53;3057035;19;19942;-53
2022/10/18 00:41:08;;;;;;;;;;;;;;;12.45;100.00;101219.53;3056989;19;19922;-53
2022/10/18 00:42:15;;;;;;;;;;;;;;;12.46;100.00;101221.28;3056982;19;19935;-52
2022/10/18 00:43:19;;;;;;;;;;;;;;;12.48;100.00;101216.69;3057220;19;19927;-52
2022/10/18 00:44:24;;;;;;;;;;;;;;;12.51;100.00;101218.34;3056944;19;20333;-52
2022/10/18 00:45:29;;;;;;;;;;;;;;;12.54;100.00;101207.47;3056898;19;19918;-52
2022/10/18 00:46:32;;;;;;;;;;;;;;;12.56;100.00;101203.72;3056612;19;19919;-52
2022/10/18 00:47:36;;;;;;;;;;;;;;;12.59;100.00;101200.88;3056856;19;19923;-52
2022/10/18 00:48:38;;;;;;;;;;;;;;;12.62;100.00;101200.69;3055886;19;19922;-53
2022/10/18 00:49:47;;;;;;;;;;;;;;;12.64;100.00;101192.56;3056317;19;19998;-54
2022/10/18 00:50:49;;;;;;;;;;;;;;;12.67;100.00;101197.75;3056428;19;20338;-52
2022/10/18 00:52:32;;;;;;;;;;;;;;;12.70;100.00;101194.00;3056845;19;19937;-53
2022/10/18 00:53:34;;;;;;;;;;;;;;;12.73;100.00;101191.16;3055389;19;19922;-53
2022/10/18 00:54:40;;;;;;;;;;;;;;;12.76;100.00;101191.00;3055063;19;19928;-53
2022/10/18 00:55:42;;;;;;;;;;;;;;;12.76;100.00;101193.66;3055414;19;19918;-52
2022/10/18 00:56:46;;;;;;;;;;;;;;;12.78;100.00;101197.13;3054923;19;20345;-52
2022/10/18 00:57:48;;;;;;;;;;;;;;;12.78;100.00;101192.63;3055318;19;19915;-52
2022/10/18 00:58:53;;;;;;;;;;;;;;;12.78;100.00;101189.09;3052572;19;19919;-54
2022/10/18 00:59:55;;;;;;;;;;;;;;;12.79;100.00;101196.16;3056090;19;19974;-53
2022/10/18 01:00:59;;;;;;;;;;;;;;;12.78;100.00;101189.09;3056000;19;19923;-53
2022/10/18 01:02:01;;;;;;;;;;;;;;;12.81;100.00;101196.91;3056709;19;19995;-53
2022/10/18 01:03:05;;;;;;;;;;;;;;;12.82;100.00;101202.19;3056744;19;20085;-53
2022/10/18 01:04:07;;;;;;;;;;;;;;;12.83;100.00;101197.69;3056127;19;19930;-52
2022/10/18 01:05:13;;;;;;;;;;;;;;;12.83;100.00;101189.66;3055510;19;19915;-52
2022/10/18 01:06:15;;;;;;;;;;;;;;;12.84;100.00;101188.72;3057026;19;19923;-52
2022/10/18 01:07:35;;;;;;;;;;;;;;;12.83;100.00;101193.19;3056483;19;19982;-53
2022/10/18 01:08:43;;;;;;;;;;;;;;;12.85;100.00;101190.44;3055818;19;19982;-53
2022/10/18 01:09:57;;;;;;;;;;;;;;;12.87;100.00;101188.53;3055942;19;20011;-52
2022/10/18 01:11:03;;;;;;;;;;;;;;;12.83;100.00;101190.53;3056353;19;20420;-53
2022/10/18 01:12:26;;;;;;;;;;;;;;;12.85;100.00;101193.13;3056897;19;19922;-53
2022/10/18 01:13:46;;;;;;;;;;;;;;;12.86;100.00;101192.16;3055848;19;19919;-53
2022/10/18 01:14:53;;;;;;;;;;;;;;;12.84;100.00;101186.03;3056296;19;19923;-53
2022/10/18 01:15:58;;;;;;;;;;;;;;;12.85;100.00;101191.28;3056387;19;19918;-54
2022/10/18 01:17:03;;;;;;;;;;;;;;;12.85;100.00;101190.44;3056766;19;19939;-53
2022/10/18 01:18:08;;;;;;;;;;;;;;;12.85;100.00;101185.94;3055567;19;19922;-53
2022/10/18 01:19:20;;;;;;;;;;;;;;;12.85;100.00;101185.06;3056578;19;19919;-52
2022/10/18 01:20:37;;;;;;;;;;;;;;;12.85;100.00;101185.06;3055833;19;19982;-54
2022/10/18 01:21:46;;;;;;;;;;;;;;;12.86;100.00;101181.44;3055449;19;20100;-52
2022/10/18 01:23:08;;;;;;;;;;;;;;;12.87;100.00;101178.69;3055879;19;19925;-52
2022/10/18 01:24:13;;;;;;;;;;;;;;;12.89;100.00;101181.28;3055695;19;20314;-53
2022/10/18 01:25:31;;;;;;;;;;;;;;;12.88;100.00;101175.03;3056603;19;19911;-53
2022/10/18 01:26:53;;;;;;;;;;;;;;;12.90;100.00;101177.63;3056783;19;19925;-53
2022/10/18 01:28:07;;;;;;;;;;;;;;;12.91;100.00;101180.22;3056113;19;19922;-53
2022/10/18 01:29:12;;;;;;;;;;;;;;;12.94;100.00;101184.50;3056730;19;20448;-52
2022/10/18 01:30:17;;;;;;;;;;;;;;;12.94;100.00;101180.03;3056422;19;19927;-53
2022/10/18 01:31:25;;;;;;;;;;;;;;;12.95;100.00;101183.56;3055937;19;20035;-52
2022/10/18 01:32:28;;;;;;;;;;;;;;;12.98;100.00;101189.59;3055262;19;20263;-53
2022/10/18 01:33:39;;;;;;;;;;;;;;;12.99;100.00;101190.47;3055387;19;19974;-53
2022/10/18 01:34:41;;;;;;;;;;;;;;;13.01;100.00;101185.88;3055618;19;19996;-52
2022/10/18 01:35:47;;;;;;;;;;;;;;;13.04;100.00;101185.69;3055610;19;19919;-53
2022/10/18 01:36:52;;;;;;;;;;;;;;;13.08;100.00;101184.53;3054473;19;20223;-52
2022/10/18 01:37:55;;;;;;;;;;;;;;;13.14;100.00;101192.25;3055485;19;20342;-53
2022/10/18 01:39:00;;;;;;;;;;;;;;;13.16;100.00;101184.97;3054932;19;19923;-54
2022/10/18 01:40:02;;;;;;;;;;;;;;;13.23;100.00;101196.19;3055267;19;19964;-52
2022/10/18 01:41:07;;;;;;;;;;;;;;;13.27;100.00;101197.72;3055176;19;19919;-53
2022/10/18 01:42:17;;;;;;;;;;;;;;;13.31;100.00;101193.88;3055208;19;19931;-52
2022/10/18 01:43:21;;;;;;;;;;;;;;;13.36;100.00;101198.97;3055081;19;19935;-53
2022/10/18 01:44:24;;;;;;;;;;;;;;;13.40;100.00;101196.03;3055115;19;20246;-52
2022/10/18 01:45:29;;;;;;;;;;;;;;;13.42;100.00;101201.25;3055668;19;19979;-52
2022/10/18 01:46:33;;;;;;;;;;;;;;;13.46;100.00;101203.66;3055483;19;19995;-54
2022/10/18 01:47:35;;;;;;;;;;;;;;;13.51;100.00;101200.72;3055756;19;20006;-52
2022/10/18 01:48:40;;;;;;;;;;;;;;;13.52;100.00;101203.31;3054902;19;19956;-53
2022/10/18 01:49:42;;;;;;;;;;;;;;;13.57;100.00;101203.00;3055561;19;20681;-52
2022/10/18 01:50:46;;;;;;;;;;;;;;;13.59;100.00;101198.41;3054836;19;20233;-53
2022/10/18 01:51:48;;;;;;;;;;;;;;;13.62;100.00;101203.59;3055005;19;20044;-52
2022/10/18 01:52:53;;;;;;;;;;;;;;;13.66;100.00;101216.69;3056233;19;19919;-53
2022/10/18 01:53:55;;;;;;;;;;;;;;;13.69;100.00;101204.91;3056266;19;19938;-53
2022/10/18 01:54:59;;;;;;;;;;;;;;;13.72;100.00;101214.59;3055716;19;19911;-53
2022/10/18 01:56:10;;;;;;;;;;;;;;;13.75;100.00;101214.41;3056283;19;19931;-52
2022/10/18 01:57:26;;;;;;;;;;;;;;;13.77;100.00;101212.47;3056043;19;19926;-53
2022/10/18 01:58:59;;;;;;;;;;;;;;;13.78;100.00;101212.38;3055752;19;19963;-53
2022/10/18 02:00:13;;;;;;;;;;;;;;;13.77;100.00;101218.69;3055830;19;19926;-53
2022/10/18 02:01:19;;;;;;;;;;;;;;;13.77;100.00;101213.31;3055966;19;19918;-52
2022/10/18 02:02:37;;;;;;;;;;;;;;;13.78;100.00;101222.25;3055205;19;19919;-53
2022/10/18 02:03:41;;;;;;;;;;;;;;;13.78;100.00;101220.41;3054945;19;19922;-52
2022/10/18 02:04:50;;;;;;;;;;;;;;;13.78;100.00;101224.91;3055368;19;20012;-53
2022/10/18 02:05:57;;;;;;;;;;;;;;;13.77;100.00;101217.81;3054863;19;20604;-53
2022/10/18 02:07:22;;;;;;;;;;;;;;;13.76;100.00;101222.38;3054308;19;19925;-53
2022/10/18 02:08:29;;;;;;;;;;;;;;;13.76;100.00;101222.38;3054675;19;19936;-52
2022/10/18 02:09:41;;;;;;;;;;;;;;;13.75;100.00;101217.94;3056183;19;19923;-54
2022/10/18 02:10:50;;;;;;;;;;;;;;;13.73;100.00;101222.56;3059309;19;19930;-52
2022/10/18 02:11:54;;;;;;;;;;;;;;;13.72;100.00;101220.81;3058049;19;19938;-53
2022/10/18 02:12:56;;;;;;;;;;;;;;;13.72;100.00;101223.50;3058271;19;20484;-52
2022/10/18 02:14:10;;;;;;;;;;;;;;;13.73;100.00;101227.91;3058036;19;19958;-54
2022/10/18 02:15:13;;;;;;;;;;;;;;;13.72;100.00;101226.19;3058129;19;20345;-52
2022/10/18 02:16:19;;;;;;;;;;;;;;;13.70;100.00;101228.09;3058015;19;19939;-53
2022/10/18 02:17:20;;;;;;;;;;;;;;;13.69;100.00;101227.22;3057949;19;19926;-53
2022/10/18 02:18:26;;;;;;;;;;;;;;;13.68;100.00;101224.66;3057806;19;19967;-56
2022/10/18 02:19:30;;;;;;;;;;;;;;;13.68;100.00;101222.81;3058337;19;19922;-54
2022/10/18 02:20:35;;;;;;;;;;;;;;;13.67;100.00;101225.59;3057963;19;19975;-53
2022/10/18 02:21:37;;;;;;;;;;;;;;;13.65;100.00;101230.19;3058317;19;19986;-53
2022/10/18 02:22:42;;;;;;;;;;;;;;;13.64;100.00;101226.66;3058655;19;19977;-53
2022/10/18 02:23:44;;;;;;;;;;;;;;;13.63;100.00;101224.09;3058519;19;20585;-53
2022/10/18 02:24:50;;;;;;;;;;;;;;;13.62;100.00;101225.03;3058077;19;20038;-52
2022/10/18 02:25:52;;;;;;;;;;;;;;;13.62;100.00;101225.03;3058206;19;20330;-52
2022/10/18 02:26:56;;;;;;;;;;;;;;;13.62;100.00;101219.69;3057955;19;19922;-52
2022/10/18 02:27:58;;;;;;;;;;;;;;;13.60;100.00;101221.59;3057990;19;20294;-52
2022/10/18 02:29:03;;;;;;;;;;;;;;;13.59;100.00;101226.09;3058004;19;19990;-53
2022/10/18 02:30:05;;;;;;;;;;;;;;;13.58;100.00;101224.38;3058983;19;20306;-52
2022/10/18 02:31:15;;;;;;;;;;;;;;;13.57;100.00;101221.78;3057581;19;20018;-53
2022/10/18 02:32:25;;;;;;;;;;;;;;;13.56;100.00;101215.53;3057543;19;19991;-53
2022/10/18 02:33:29;;;;;;;;;;;;;;;13.56;100.00;101222.72;3058122;19;19940;-52
2022/10/18 02:34:36;;;;;;;;;;;;;;;13.54;100.00;101224.63;3057754;19;19919;-53
2022/10/18 02:35:43;;;;;;;;;;;;;;;13.52;100.00;101224.75;3057827;19;19915;-52
2022/10/18 02:36:49;;;;;;;;;;;;;;;13.45;100.00;101214.50;3056183;19;19927;-52
2022/10/18 02:37:51;;;;;;;;;;;;;;;13.50;100.00;101215.06;3058126;19;19923;-53
2022/10/18 02:38:56;;;;;;;;;;;;;;;13.49;100.00;101218.72;3057565;19;19923;-53
2022/10/18 02:39:58;;;;;;;;;;;;;;;13.47;100.00;101215.25;3057861;19;20015;-53
2022/10/18 02:41:03;;;;;;;;;;;;;;;13.47;100.00;101215.25;3058543;19;19919;-53
2022/10/18 02:42:05;;;;;;;;;;;;;;;13.44;100.00;101215.44;3058686;19;20360;-53
2022/10/18 02:43:10;;;;;;;;;;;;;;;13.42;100.00;101217.34;3058387;19;20050;-53
2022/10/18 02:44:12;;;;;;;;;;;;;;;13.42;100.00;101217.34;3058757;19;19915;-53
2022/10/18 02:45:16;;;;;;;;;;;;;;;13.39;100.00;101217.56;3058497;19;19936;-54
2022/10/18 02:46:19;;;;;;;;;;;;;;;13.36;100.00;101207.03;3058434;19;19923;-52
2022/10/18 02:47:23;;;;;;;;;;;;;;;13.33;100.00;101208.06;3057283;19;20274;-53
2022/10/18 02:48:25;;;;;;;;;;;;;;;13.32;100.00;101207.19;3058094;19;19919;-53
2022/10/18 02:49:29;;;;;;;;;;;;;;;13.33;100.00;101219.66;3058394;19;19999;-53
2022/10/18 02:50:31;;;;;;;;;;;;;;;13.32;100.00;101215.25;3058808;19;19934;-52
2022/10/18 02:51:36;;;;;;;;;;;;;;;13.32;100.00;101212.56;3058302;19;19926;-53
2022/10/18 02:52:37;;;;;;;;;;;;;;;13.33;100.00;101219.66;3058350;19;19919;-52
2022/10/18 02:53:42;;;;;;;;;;;;;;;13.33;100.00;101219.66;3058107;19;19923;-52
2022/10/18 02:54:44;;;;;;;;;;;;;;;13.32;100.00;101212.56;3059567;19;19931;-53
2022/10/18 02:55:48;;;;;;;;;;;;;;;13.30;100.00;101217.16;3057548;19;19926;-52
2022/10/18 02:56:50;;;;;;;;;;;;;;;13.29;100.00;101217.25;3059136;19;19964;-53
2022/10/18 02:57:54;;;;;;;;;;;;;;;13.28;100.00;101216.38;3058279;19;20014;-52
2022/10/18 02:58:56;;;;;;;;;;;;;;;13.29;100.00;101218.09;3058399;19;19950;-53
2022/10/18 03:00:01;;;;;;;;;;;;;;;13.29;100.00;101218.09;3058085;19;19931;-53
2022/10/18 03:01:03;;;;;;;;;;;;;;;13.29;100.00;101214.56;3058159;19;19995;-52
2022/10/18 03:02:07;;;;;;;;;;;;;;;13.28;100.00;101216.38;3058029;19;19938;-53
2022/10/18 03:03:09;;;;;;;;;;;;;;;13.27;100.00;101209.31;3058476;19;19930;-53
2022/10/18 03:04:13;;;;;;;;;;;;;;;13.27;100.00;101220.03;3058184;19;20023;-53
2022/10/18 03:05:15;;;;;;;;;;;;;;;13.30;100.00;101224.34;3058353;19;20551;-53
2022/10/18 03:06:20;;;;;;;;;;;;;;;13.30;100.00;101219.84;3058276;19;19942;-53
2022/10/18 03:07:22;;;;;;;;;;;;;;;13.29;100.00;101223.47;3058779;19;19922;-52
2022/10/18 03:08:26;;;;;;;;;;;;;;;13.28;100.00;101216.38;3057876;19;19935;-52
2022/10/18 03:09:28;;;;;;;;;;;;;;;13.28;100.00;101227.09;3058659;19;19943;-52
2022/10/18 03:10:33;;;;;;;;;;;;;;;13.26;100.00;101223.69;3058039;19;19954;-52
2022/10/18 03:11:36;;;;;;;;;;;;;;;13.26;100.00;101221.00;3058335;19;19949;-52
2022/10/18 03:12:40;;;;;;;;;;;;;;;13.27;100.00;101219.19;3057915;19;19922;-53
2022/10/18 03:13:42;;;;;;;;;;;;;;;13.28;100.00;101221.75;3058477;19;20006;-53
2022/10/18 03:14:47;;;;;;;;;;;;;;;13.28;100.00;101216.38;3057758;19;19942;-53
2022/10/18 03:15:49;;;;;;;;;;;;;;;13.28;100.00;101221.75;3058429;19;20259;-53
2022/10/18 03:16:53;;;;;;;;;;;;;;;13.28;100.00;101223.59;3058013;19;19957;-53
2022/10/18 03:17:55;;;;;;;;;;;;;;;13.29;100.00;101223.47;3058147;19;19923;-53
2022/10/18 03:18:59;;;;;;;;;;;;;;;13.29;100.00;101223.47;3058372;19;20015;-52
2022/10/18 03:20:04;;;;;;;;;;;;;;;13.29;100.00;101223.47;3058388;19;19926;-53
2022/10/18 03:21:06;;;;;;;;;;;;;;;13.29;100.00;101219.94;3058253;19;19935;-52
2022/10/18 03:22:11;;;;;;;;;;;;;;;13.27;100.00;101225.41;3056094;19;19914;-52
2022/10/18 03:23:12;;;;;;;;;;;;;;;13.26;100.00;101222.81;3058425;19;19948;-53
2022/10/18 03:24:17;;;;;;;;;;;;;;;13.24;100.00;101222.91;3058057;19;19942;-52
2022/10/18 03:25:19;;;;;;;;;;;;;;;13.23;100.00;101218.50;3058312;19;19976;-52
2022/10/18 03:26:23;;;;;;;;;;;;;;;13.21;100.00;101215.03;3057755;19;19995;-52
2022/10/18 03:27:25;;;;;;;;;;;;;;;13.20;100.00;101218.69;3058556;19;19923;-52
2022/10/18 03:28:30;;;;;;;;;;;;;;;13.19;100.00;101219.63;3057814;19;20031;-53
2022/10/18 03:29:32;;;;;;;;;;;;;;;13.16;100.00;101217.13;3058099;19;19927;-54
2022/10/18 03:30:37;;;;;;;;;;;;;;;13.15;100.00;101220.78;3056840;19;20223;-54
2022/10/18 03:31:39;;;;;;;;;;;;;;;13.14;100.00;101218.16;3057261;19;19915;-52
2022/10/18 03:32:43;;;;;;;;;;;;;;;13.13;100.00;101211.94;3057750;19;20016;-53
2022/10/18 03:33:45;;;;;;;;;;;;;;;13.12;100.00;101206.66;3057370;19;19990;-52
2022/10/18 03:34:50;;;;;;;;;;;;;;;13.13;100.00;101217.31;3057645;19;19946;-53
2022/10/18 03:35:52;;;;;;;;;;;;;;;13.13;100.00;101214.63;3058215;19;19926;-52
2022/10/18 03:36:56;;;;;;;;;;;;;;;13.14;100.00;101211.03;3056760;19;19982;-53
2022/10/18 03:38:04;;;;;;;;;;;;;;;13.13;100.00;101222.66;3058091;19;19939;-52
2022/10/18 03:39:08;;;;;;;;;;;;;;;13.13;100.00;101217.31;3057584;19;19946;-52
2022/10/18 03:40:10;;;;;;;;;;;;;;;13.11;100.00;101213.84;3057915;19;19990;-53
2022/10/18 03:41:15;;;;;;;;;;;;;;;13.10;100.00;101211.25;3057572;19;19939;-52
2022/10/18 03:42:17;;;;;;;;;;;;;;;13.10;100.00;101213.94;3058033;19;19923;-52
2022/10/18 03:43:21;;;;;;;;;;;;;;;13.09;100.00;101209.53;3057461;19;20348;-52
2022/10/18 03:44:23;;;;;;;;;;;;;;;13.09;100.00;101210.41;3057872;19;20386;-52
2022/10/18 03:45:27;;;;;;;;;;;;;;;13.08;100.00;101208.66;3057516;19;19954;-53
2022/10/18 03:46:32;;;;;;;;;;;;;;;13.07;100.00;101212.28;3058001;19;19923;-53
2022/10/18 03:47:36;;;;;;;;;;;;;;;13.07;100.00;101208.75;3057617;19;19974;-52
2022/10/18 03:48:41;;;;;;;;;;;;;;;13.06;100.00;101207.03;3057004;19;19919;-53
2022/10/18 03:49:42;;;;;;;;;;;;;;;13.04;100.00;101201.75;3057017;19;19981;-53
2022/10/18 03:50:47;;;;;;;;;;;;;;;13.03;100.00;101210.78;3058144;19;19919;-53
2022/10/18 03:51:49;;;;;;;;;;;;;;;13.01;100.00;101207.31;3058007;19;19919;-52
2022/10/18 03:52:54;;;;;;;;;;;;;;;12.99;100.00;101206.53;3057577;19;20334;-53
2022/10/18 03:53:56;;;;;;;;;;;;;;;12.98;100.00;101210.19;3057220;19;19990;-53
2022/10/18 03:55:00;;;;;;;;;;;;;;;12.97;100.00;101213.81;3059225;19;19922;-52
2022/10/18 03:56:02;;;;;;;;;;;;;;;12.95;100.00;101216.56;3057529;19;20300;-53
2022/10/18 03:57:06;;;;;;;;;;;;;;;12.94;100.00;101212.16;3057689;19;20079;-53
2022/10/18 03:58:08;;;;;;;;;;;;;;;12.94;100.00;101214.84;3057339;19;19943;-53
2022/10/18 03:59:13;;;;;;;;;;;;;;;12.93;100.00;101214.94;3057220;19;19934;-53
2022/10/18 04:00:15;;;;;;;;;;;;;;;12.92;100.00;101215.91;3056855;19;19923;-53
2022/10/18 04:01:19;;;;;;;;;;;;;;;12.91;100.00;101224.91;3057774;19;20317;-52
2022/10/18 04:02:21;;;;;;;;;;;;;;;12.91;100.00;101216.88;3058341;19;19930;-52
2022/10/18 04:03:25;;;;;;;;;;;;;;;12.87;100.00;101210.81;3057307;19;19923;-52
2022/10/18 04:04:27;;;;;;;;;;;;;;;12.87;100.00;101218.00;3057584;19;19926;-52
2022/10/18 04:05:33;;;;;;;;;;;;;;;12.87;100.00;101216.19;3057550;19;20330;-52
2022/10/18 04:06:35;;;;;;;;;;;;;;;12.86;100.00;101214.44;3057227;19;19923;-52
2022/10/18 04:07:39;;;;;;;;;;;;;;;12.84;100.00;101215.50;3057253;19;19935;-53
2022/10/18 04:08:41;;;;;;;;;;;;;;;12.84;100.00;101220.84;3057416;19;19926;-53
2022/10/18 04:09:45;;;;;;;;;;;;;;;12.84;100.00;101216.34;3056834;19;19923;-52
2022/10/18 04:10:48;;;;;;;;;;;;;;;12.82;100.00;101214.72;3057348;19;19939;-52
2022/10/18 04:11:52;;;;;;;;;;;;;;;12.83;100.00;101213.75;3057242;19;20031;-53
2022/10/18 04:12:54;;;;;;;;;;;;;;;12.82;100.00;101214.72;3056994;19;19982;-52
2022/10/18 04:13:59;;;;;;;;;;;;;;;12.80;100.00;101213.97;3056873;19;19919;-53
2022/10/18 04:15:01;;;;;;;;;;;;;;;12.80;100.00;101211.28;3057228;19;19926;-52
2022/10/18 04:16:05;;;;;;;;;;;;;;;12.78;100.00;101215.88;3057449;19;19927;-53
2022/10/18 04:17:07;;;;;;;;;;;;;;;12.77;100.00;101222.19;3056507;19;19976;-53
2022/10/18 04:18:12;;;;;;;;;;;;;;;12.76;100.00;101223.13;3056453;19;20353;-53
2022/10/18 04:19:13;;;;;;;;;;;;;;;12.74;100.00;101208.97;3056937;19;19923;-53
2022/10/18 04:20:18;;;;;;;;;;;;;;;12.72;100.00;101213.53;3056993;19;19930;-52
2022/10/18 04:21:20;;;;;;;;;;;;;;;12.72;100.00;101213.53;3057681;19;19918;-52
2022/10/18 04:22:24;;;;;;;;;;;;;;;12.71;100.00;101214.50;3053991;19;19934;-52
2022/10/18 04:23:26;;;;;;;;;;;;;;;12.72;100.00;101224.25;3055770;19;20678;-52
2022/10/18 04:24:31;;;;;;;;;;;;;;;12.69;100.00;101221.75;3056681;19;19926;-53
2022/10/18 04:25:33;;;;;;;;;;;;;;;12.70;100.00;101226.16;3054101;19;19944;-52
2022/10/18 04:26:37;;;;;;;;;;;;;;;12.68;100.00;101226.25;3055907;19;19928;-52
2022/10/18 04:27:39;;;;;;;;;;;;;;;12.68;100.00;101226.25;3055896;19;19919;-52
2022/10/18 04:28:44;;;;;;;;;;;;;;;12.67;100.00;101221.00;3054587;19;19928;-53
2022/10/18 04:29:46;;;;;;;;;;;;;;;12.68;100.00;101225.41;3054392;19;20269;-53
2022/10/18 04:30:51;;;;;;;;;;;;;;;12.68;100.00;101228.09;3054552;19;20291;-53
2022/10/18 04:31:53;;;;;;;;;;;;;;;12.66;100.00;101212.09;3055059;19;19941;-52
2022/10/18 04:32:57;;;;;;;;;;;;;;;12.66;100.00;101219.28;3055977;19;19926;-53
2022/10/18 04:33:59;;;;;;;;;;;;;;;12.67;100.00;101221.00;3055186;19;19926;-53
2022/10/18 04:35:04;;;;;;;;;;;;;;;12.67;100.00;101223.69;3055424;19;19934;-52
2022/10/18 04:36:06;;;;;;;;;;;;;;;12.65;100.00;101225.56;3054822;19;19935;-53
2022/10/18 04:37:10;;;;;;;;;;;;;;;12.65;100.00;101225.56;3054425;19;20544;-52
2022/10/18 04:38:13;;;;;;;;;;;;;;;12.65;100.00;101217.53;3054931;19;19949;-52
2022/10/18 04:39:17;;;;;;;;;;;;;;;12.62;100.00;101216.75;3055284;19;19919;-53
2022/10/18 04:40:19;;;;;;;;;;;;;;;12.63;100.00;101223.84;3055710;19;19930;-53
2022/10/18 04:41:24;;;;;;;;;;;;;;;12.63;100.00;101221.16;3055765;19;20380;-53
2022/10/18 04:42:26;;;;;;;;;;;;;;;12.62;100.00;101218.56;3054702;19;20307;-53
2022/10/18 04:43:30;;;;;;;;;;;;;;;12.62;100.00;101222.13;3056776;19;19984;-52
2022/10/18 04:44:33;;;;;;;;;;;;;;;12.63;100.00;101215.81;3057158;19;19930;-53
2022/10/18 04:45:37;;;;;;;;;;;;;;;12.66;100.00;101216.59;3056495;19;19929;-54
2022/10/18 04:46:39;;;;;;;;;;;;;;;12.65;100.00;101213.06;3056252;19;19929;-53
2022/10/18 04:47:44;;;;;;;;;;;;;;;12.65;100.00;101220.22;3055578;19;20390;-53
2022/10/18 04:48:45;;;;;;;;;;;;;;;12.64;100.00;101219.34;3056063;19;20486;-54
2022/10/18 04:49:50;;;;;;;;;;;;;;;12.64;100.00;101219.34;3056715;19;19931;-53
2022/10/18 04:50:52;;;;;;;;;;;;;;;12.67;100.00;101223.69;3056968;19;20032;-54
2022/10/18 04:51:56;;;;;;;;;;;;;;;12.66;100.00;101220.13;3056899;19;19923;-53
2022/10/18 04:52:58;;;;;;;;;;;;;;;12.61;100.00;101214.16;3056583;19;20338;-54
2022/10/18 04:54:03;;;;;;;;;;;;;;;12.67;100.00;101223.69;3056820;19;19926;-53
2022/10/18 04:55:05;;;;;;;;;;;;;;;12.67;100.00;101229.91;3055819;19;19922;-53
2022/10/18 04:56:09;;;;;;;;;;;;;;;12.66;100.00;101224.63;3056485;19;20309;-54
2022/10/18 04:57:11;;;;;;;;;;;;;;;12.67;100.00;101223.69;3056825;19;19986;-53
2022/10/18 04:58:16;;;;;;;;;;;;;;;12.68;100.00;101228.91;3056637;19;19923;-53
2022/10/18 04:59:18;;;;;;;;;;;;;;;12.68;100.00;101228.09;3057083;19;20060;-54
2022/10/18 05:00:22;;;;;;;;;;;;;;;12.67;100.00;101226.34;3055993;19;19922;-54
2022/10/18 05:01:24;;;;;;;;;;;;;;;12.67;100.00;101232.56;3057129;19;19978;-53
2022/10/18 05:02:28;;;;;;;;;;;;;;;12.67;100.00;101229.03;3057001;19;19911;-53
2022/10/18 05:03:34;;;;;;;;;;;;;;;12.66;100.00;101224.63;3056886;19;19926;-54
2022/10/18 05:04:38;;;;;;;;;;;;;;;12.66;100.00;101235.34;3056643;19;19926;-53
2022/10/18 05:05:40;;;;;;;;;;;;;;;12.64;100.00;101224.72;3056212;19;19914;-55
2022/10/18 05:07:05;;;;;;;;;;;;;;;12.65;100.00;101231.78;3056495;19;19922;-53
2022/10/18 05:08:07;;;;;;;;;;;;;;;12.66;100.00;101238.00;3057029;19;20338;-52
2022/10/18 05:09:11;;;;;;;;;;;;;;;12.66;100.00;101227.31;3056755;19;20463;-54
2022/10/18 05:10:13;;;;;;;;;;;;;;;12.65;100.00;101234.47;3055678;19;19919;-57
2022/10/18 05:11:18;;;;;;;;;;;;;;;12.63;100.00;101229.19;3055754;19;19915;-54
2022/10/18 05:12:21;;;;;;;;;;;;;;;12.65;100.00;101231.78;3056688;19;19929;-54
2022/10/18 05:13:25;;;;;;;;;;;;;;;12.63;100.00;101229.19;3055590;19;19926;-52
2022/10/18 05:14:27;;;;;;;;;;;;;;;12.65;100.00;101230.94;3056853;19;20636;-52
2022/10/18 05:15:31;;;;;;;;;;;;;;;12.65;100.00;101225.56;3055894;19;19930;-53
2022/10/18 05:16:33;;;;;;;;;;;;;;;12.65;100.00;101231.78;3056718;19;19922;-52
2022/10/18 05:17:38;;;;;;;;;;;;;;;12.65;100.00;101233.59;3055136;19;19981;-53
2022/10/18 05:18:41;;;;;;;;;;;;;;;12.65;100.00;101226.44;3056989;19;19919;-53
2022/10/18 05:19:46;;;;;;;;;;;;;;;12.65;100.00;101230.94;3055821;19;19932;-52
2022/10/18 05:20:48;;;;;;;;;;;;;;;12.66;100.00;101224.63;3055024;19;20006;-53
2022/10/18 05:21:52;;;;;;;;;;;;;;;12.65;100.00;101226.44;3055730;19;19929;-53
2022/10/18 05:22:54;;;;;;;;;;;;;;;12.66;100.00;101235.34;3056825;19;19932;-53
2022/10/18 05:23:59;;;;;;;;;;;;;;;12.65;100.00;101231.78;3055704;19;19911;-54
2022/10/18 05:25:00;;;;;;;;;;;;;;;12.66;100.00;101235.34;3056664;19;19922;-53
2022/10/18 05:26:08;;;;;;;;;;;;;;;12.67;100.00;101229.03;3054659;19;20451;-53
2022/10/18 05:27:10;;;;;;;;;;;;;;;12.67;100.00;101234.38;3055771;19;19986;-52
2022/10/18 05:28:15;;;;;;;;;;;;;;;12.68;100.00;101233.44;3055844;19;19942;-53
2022/10/18 05:29:39;;;;;;;;;;;;;;;12.68;100.00;101236.94;3056582;19;20415;-51